Warnock, OH (43967)

5:35 PM EST on December 02, 2016 (GMT -0500)
Morristown, Ohio | | Change Station

Elev 1283 ft 40.08 °N, 81.06 °W | Updated 19 seconds ago

Overcast
Overcast
35.5 °F
Feels Like 36 °F
N
2.0
Wind Variable Wind from West

Today
High -- | Low -- °F
--% Chance of Precip.
Yesterday
High -- | Low -- °F
Precip. -- in
Pressure 30.13 in
Visibility 10.0 miles
Clouds Scattered Clouds 1900 ft
Scattered Clouds 2800 ft
Overcast 4000 ft
Windchill 36 °F
Dew Point 35 °F
Humidity 98%
Rainfall 0.00 in
Snow Depth Not available.
7:27 AM 4:58 PM
Waxing Crescent, 11% visible
SPECI KHLG 022215Z 25010KT 10SM SCT019 SCT028 OVC040 02/M02 A3013 RMK AO2 UPE05RAB2154E01 P0000 T00221017
Pressure 30.13 in
Visibility 10.0 miles
Clouds Scattered Clouds 1900 ft
Scattered Clouds 2800 ft
Overcast 4000 ft
Windchill 36 °F
Dew Point 35 °F
Humidity 98%
Rainfall 0.00 in
Snow Depth Not available.
7:27 AM 4:58 PM
Waxing Crescent, 11% visible
SPECI KHLG 022215Z 25010KT 10SM SCT019 SCT028 OVC040 02/M02 A3013 RMK AO2 UPE05RAB2154E01 P0000 T00221017

10-Day Weather Forecast

Almanac

Astronomy

Dec. 02, 2016 Rise Set
Actual Time
Civil Twilight
Nautical Twilight
Astronomical Twilight
Moon
Length of Visible Light
Length of Day
Tomorrow will be .
, % of the Moon is Illuminated

Today's Extremes

State Highs State Lows

Community

WunderPhotos

Upload Photos

1,955,376 photos uploaded!

WunderBlog® & News

Nearby

Air Quality

  Air Quality AQ Index Pollutant
Not available.

Snow Depth

Station Depth Elevation

Earthquake Activity

City Distance Mag. Time & Date
Minimum magnitude displayed is 2.5.

Coastal Water Temperatures

Place Temperature

Stations

Nearby Weather Stations

Station Location Temp. Windchill Dew Point Humidity Wind Precip. Elev Updated Type
                   

Watches & Warnings

There are currently no watches in effect.